createdAt,value
2022-08-17T00:00:49.701Z,83.53
2022-08-17T00:03:24.271Z,86.45
2022-08-17T00:05:55.437Z,87.50
2022-08-17T00:08:27.884Z,88.58
2022-08-17T00:10:57.635Z,86.10
2022-08-17T00:13:29.578Z,87.88
2022-08-17T00:16:02.316Z,85.10
2022-08-17T00:19:06.183Z,84.87
2022-08-17T00:21:25.132Z,81.78
2022-08-17T00:23:56.399Z,83.54
2022-08-17T00:26:44.352Z,83.87
2022-08-17T00:29:14.900Z,84.50
2022-08-17T00:31:49.536Z,81.41
2022-08-17T00:34:19.083Z,79.94
2022-08-17T00:36:48.058Z,100.00
2022-08-17T00:39:18.266Z,98.35
2022-08-17T00:41:47.784Z,93.56
2022-08-17T00:44:16.812Z,94.29
2022-08-17T00:46:47.922Z,93.05
2022-08-17T00:49:19.655Z,90.14
2022-08-17T00:51:53.446Z,88.84
2022-08-17T00:54:28.249Z,89.50
2022-08-17T00:57:03.991Z,91.22
2022-08-17T00:59:38.518Z,89.74
2022-08-17T01:02:09.955Z,88.44
2022-08-17T01:04:39.867Z,88.58
2022-08-17T01:07:11.314Z,90.25
2022-08-17T01:09:42.708Z,89.22
2022-08-17T01:12:13.365Z,91.17
2022-08-17T01:14:42.702Z,92.40
2022-08-17T01:17:11.892Z,92.12
2022-08-17T01:19:43.554Z,90.84
2022-08-17T01:22:25.380Z,89.63
2022-08-17T01:24:59.159Z,89.79
2022-08-17T01:27:29.837Z,90.95
2022-08-17T01:30:02.734Z,90.08
2022-08-17T01:32:32.181Z,90.72
2022-08-17T01:35:01.940Z,91.16
2022-08-17T01:37:35.654Z,91.85
2022-08-17T01:40:10.469Z,90.86
2022-08-17T01:42:45.906Z,92.95
2022-08-17T01:45:18.217Z,92.60
2022-08-17T01:47:47.293Z,94.13
2022-08-17T01:50:20.860Z,95.71
2022-08-17T01:52:55.299Z,92.79
2022-08-17T01:55:30.687Z,91.48
2022-08-17T01:57:59.542Z,92.88
2022-08-17T02:00:59.448Z,93.23
2022-08-17T02:03:20.378Z,95.69
2022-08-17T02:05:50.104Z,94.77
2022-08-17T02:08:21.387Z,93.80
2022-08-17T02:11:12.093Z,93.05
2022-08-17T02:13:41.805Z,94.15
2022-08-17T02:16:10.902Z,93.32
2022-08-17T02:18:40.114Z,92.90
2022-08-17T02:21:09.503Z,95.98
2022-08-17T02:23:43.016Z,94.71
2022-08-17T02:26:25.806Z,95.11
2022-08-17T02:28:55.820Z,99.25
2022-08-17T02:31:24.803Z,97.07
2022-08-17T02:34:00.282Z,95.77
2022-08-17T02:36:34.948Z,100.00
2022-08-17T02:39:08.745Z,100.00
2022-08-17T02:41:38.028Z,98.93
2022-08-17T02:44:07.774Z,98.14
2022-08-17T02:46:37.063Z,97.96
2022-08-17T02:49:06.188Z,96.13
2022-08-17T02:51:35.572Z,96.36
2022-08-17T02:54:40.592Z,95.99
2022-08-17T02:56:54.774Z,96.15
2022-08-17T02:59:24.385Z,95.86
2022-08-17T03:01:53.764Z,98.46
2022-08-17T03:04:22.823Z,96.57
2022-08-17T03:06:51.727Z,96.57
2022-08-17T03:09:21.961Z,98.80
2022-08-17T03:11:53.163Z,97.53
2022-08-17T03:14:26.163Z,100.00
2022-08-17T03:16:55.510Z,100.00
2022-08-17T03:19:24.576Z,98.96
2022-08-17T03:21:55.164Z,100.00
2022-08-17T03:24:28.835Z,97.96
2022-08-17T03:26:57.982Z,97.68
2022-08-17T03:29:26.889Z,99.37
2022-08-17T03:31:55.760Z,100.00
2022-08-17T03:34:24.627Z,100.00
2022-08-17T03:36:53.546Z,100.00
2022-08-17T03:39:22.418Z,99.94
2022-08-17T03:41:52.789Z,100.00
2022-08-17T03:44:21.686Z,100.00
2022-08-17T03:47:07.813Z,99.81
2022-08-17T03:49:54.043Z,100.00
2022-08-17T03:52:40.152Z,100.00
2022-08-17T03:55:35.945Z,98.28
2022-08-17T03:58:06.733Z,100.00
2022-08-17T04:00:39.741Z,100.00
2022-08-17T04:03:09.078Z,99.85
2022-08-17T04:05:38.352Z,99.42
2022-08-17T04:08:10.317Z,98.02
2022-08-17T04:10:44.817Z,98.68
2022-08-17T04:13:15.844Z,97.42
2022-08-17T04:15:54.355Z,96.51
2022-08-17T04:18:23.286Z,96.07
2022-08-17T04:20:52.313Z,98.62
2022-08-17T04:23:21.194Z,98.66
2022-08-17T04:25:53.873Z,100.00
2022-08-17T04:28:24.210Z,99.01
2022-08-17T04:30:53.198Z,99.38
2022-08-17T04:33:24.132Z,100.00
2022-08-17T04:35:55.793Z,100.00
2022-08-17T04:38:26.629Z,100.00
2022-08-17T04:41:13.609Z,98.36
2022-08-17T04:43:45.204Z,95.23
2022-08-17T04:46:17.052Z,100.00
2022-08-17T04:48:48.167Z,100.00
2022-08-17T04:51:20.235Z,100.00
2022-08-17T04:53:54.193Z,97.89
2022-08-17T04:56:25.195Z,93.64
2022-08-17T04:58:59.987Z,91.97
2022-08-17T05:01:31.286Z,93.95
2022-08-17T05:04:32.125Z,91.14
2022-08-17T05:06:52.651Z,86.99
2022-08-17T05:09:21.539Z,85.10
2022-08-17T05:11:50.428Z,86.36
2022-08-17T05:14:20.679Z,85.72
2022-08-17T05:16:51.166Z,84.37
2022-08-17T05:19:20.012Z,79.82
2022-08-17T05:21:50.304Z,82.56
2022-08-17T05:24:38.460Z,87.11
2022-08-17T05:27:08.970Z,85.63
2022-08-17T05:29:39.425Z,86.95
2022-08-17T05:32:38.614Z,83.40
2022-08-17T05:35:01.036Z,85.29
2022-08-17T05:37:29.936Z,85.17
2022-08-17T05:39:58.876Z,77.10
2022-08-17T05:42:27.735Z,71.69
2022-08-17T05:44:59.847Z,69.00
2022-08-17T05:47:29.381Z,66.05
2022-08-17T05:49:59.139Z,63.34
2022-08-17T05:52:39.271Z,61.35
2022-08-17T05:55:18.942Z,62.92
2022-08-17T05:58:01.153Z,64.21
2022-08-17T06:00:44.173Z,64.26
2022-08-17T06:03:34.315Z,62.58
2022-08-17T06:06:15.987Z,63.81
2022-08-17T06:08:51.670Z,64.17
2022-08-17T06:11:32.681Z,62.93
2022-08-17T06:14:18.380Z,64.60
2022-08-17T06:16:52.714Z,64.53
2022-08-17T06:19:31.733Z,59.88
2022-08-17T06:22:02.767Z,58.52
2022-08-17T06:24:40.368Z,56.92
2022-08-17T06:27:15.072Z,52.32
2022-08-17T06:29:51.939Z,51.17
2022-08-17T06:32:23.009Z,51.57
2022-08-17T06:34:53.801Z,52.61
2022-08-17T06:37:48.987Z,58.51
2022-08-17T06:40:51.329Z,59.83
2022-08-17T06:43:35.035Z,58.17
2022-08-17T06:46:10.999Z,57.46
2022-08-17T06:48:48.463Z,57.59
2022-08-17T06:51:25.170Z,54.15
2022-08-17T06:54:00.828Z,55.17
2022-08-17T06:56:52.970Z,51.29
2022-08-17T06:59:36.261Z,48.49
2022-08-17T07:02:29.428Z,48.70
2022-08-17T07:05:23.713Z,47.53
2022-08-17T07:08:03.412Z,45.74
2022-08-17T07:10:48.227Z,43.95
2022-08-17T07:13:35.218Z,45.33
2022-08-17T07:16:19.562Z,47.58
2022-08-17T07:18:51.057Z,47.53
2022-08-17T07:21:40.792Z,46.06
2022-08-17T07:24:37.381Z,45.26
2022-08-17T07:27:14.691Z,44.59
2022-08-17T07:29:48.911Z,44.24
2022-08-17T07:32:21.305Z,46.12
2022-08-17T07:35:15.273Z,44.56
2022-08-17T07:37:51.062Z,45.83
2022-08-17T07:40:30.849Z,46.66
2022-08-17T07:43:23.611Z,42.72
2022-08-17T07:46:21.423Z,42.46
2022-08-17T07:48:53.758Z,43.22
2022-08-17T07:51:26.978Z,42.78
2022-08-17T07:54:13.979Z,42.18
2022-08-17T07:56:47.239Z,41.92
2022-08-17T07:59:23.007Z,40.55
2022-08-17T08:02:10.252Z,39.62
2022-08-17T08:04:59.720Z,39.02
2022-08-17T08:07:32.143Z,39.70
2022-08-17T08:10:08.130Z,38.61
2022-08-17T08:12:38.537Z,38.23
2022-08-17T08:15:18.835Z,38.05
2022-08-17T08:17:52.259Z,37.33
2022-08-17T08:20:51.555Z,36.02
2022-08-17T08:23:25.700Z,34.93
2022-08-17T08:26:18.625Z,34.07
2022-08-17T08:28:55.032Z,33.55
2022-08-17T08:31:31.572Z,30.19
2022-08-17T08:34:53.348Z,31.40
2022-08-17T08:37:16.366Z,32.43
2022-08-17T08:39:57.618Z,30.68
2022-08-17T08:42:38.388Z,31.09
2022-08-17T08:45:14.417Z,32.58
2022-08-17T08:48:05.535Z,32.77
2022-08-17T08:50:47.565Z,31.81
2022-08-17T08:53:31.971Z,29.61
2022-08-17T08:56:06.232Z,30.58
2022-08-17T08:58:48.377Z,27.13
2022-08-17T09:01:27.784Z,28.93
2022-08-17T09:04:23.381Z,29.65
2022-08-17T09:07:09.813Z,30.66
2022-08-17T09:09:50.702Z,28.90
2022-08-17T09:12:27.089Z,28.27
2022-08-17T09:15:02.358Z,28.90
2022-08-17T09:17:36.213Z,29.44
2022-08-17T09:20:14.460Z,28.97
2022-08-17T09:23:04.078Z,30.50
2022-08-17T09:25:36.157Z,30.14
2022-08-17T09:28:08.257Z,30.80
2022-08-17T09:30:46.200Z,27.38
2022-08-17T09:33:22.872Z,27.63
2022-08-17T09:35:56.774Z,27.54
2022-08-17T09:38:32.646Z,29.03
2022-08-17T09:41:10.687Z,27.21
2022-08-17T09:43:44.882Z,27.92
2022-08-17T09:46:18.853Z,29.52
2022-08-17T09:48:55.394Z,29.81
2022-08-17T09:51:33.198Z,27.45
2022-08-17T09:54:34.781Z,28.27
2022-08-17T09:57:28.008Z,25.58
2022-08-17T10:00:16.458Z,24.83
2022-08-17T10:03:20.338Z,24.64
2022-08-17T10:05:57.190Z,26.21
2022-08-17T10:08:36.641Z,26.47
2022-08-17T10:11:22.545Z,24.55
2022-08-17T10:14:24.127Z,26.96
2022-08-17T10:17:05.701Z,27.19
2022-08-17T10:19:39.859Z,28.77
2022-08-17T10:22:38.785Z,28.15
2022-08-17T10:25:48.595Z,28.08
2022-08-17T10:28:28.842Z,28.15
2022-08-17T10:31:33.789Z,26.86
2022-08-17T10:34:09.448Z,26.40
2022-08-17T10:36:48.468Z,26.21
2022-08-17T10:39:30.686Z,26.35
2022-08-17T10:42:05.835Z,24.95
2022-08-17T10:44:47.569Z,25.90
2022-08-17T10:47:18.871Z,24.18
2022-08-17T10:49:53.989Z,25.37
2022-08-17T10:52:50.162Z,25.27
2022-08-17T10:55:20.712Z,24.38
2022-08-17T10:57:51.275Z,24.93
2022-08-17T11:00:59.909Z,22.67
2022-08-17T11:03:29.681Z,22.64
2022-08-17T11:06:12.627Z,24.41
2022-08-17T11:09:23.289Z,26.48
2022-08-17T11:12:16.133Z,24.30
2022-08-17T11:14:58.035Z,22.51
2022-08-17T11:17:49.833Z,22.17
2022-08-17T11:20:38.770Z,21.84
2022-08-17T11:23:46.028Z,21.91
2022-08-17T11:26:27.020Z,23.94
2022-08-17T11:29:02.252Z,24.25
2022-08-17T11:31:38.431Z,25.33
2022-08-17T11:34:19.076Z,24.30
2022-08-17T11:37:30.419Z,23.24
2022-08-17T11:40:29.043Z,21.84
2022-08-17T11:43:15.427Z,21.38
2022-08-17T11:46:02.640Z,21.90
2022-08-17T11:48:56.250Z,21.56
2022-08-17T11:51:46.503Z,20.23
2022-08-17T11:54:41.880Z,20.65
2022-08-17T11:57:48.295Z,21.67
2022-08-17T12:00:49.273Z,24.52
2022-08-17T12:03:54.042Z,25.26
2022-08-17T12:06:33.220Z,27.39
2022-08-17T12:09:08.910Z,27.08
2022-08-17T12:11:56.305Z,27.32
2022-08-17T12:15:08.168Z,27.39
2022-08-17T12:17:40.836Z,26.98
2022-08-17T12:20:16.379Z,26.37
2022-08-17T12:22:54.976Z,25.47
2022-08-17T12:25:33.237Z,24.32
2022-08-17T12:28:06.786Z,24.95
2022-08-17T12:30:37.578Z,25.00
2022-08-17T12:33:25.314Z,25.73
2022-08-17T12:36:02.977Z,27.21
2022-08-17T12:38:34.589Z,24.82
2022-08-17T12:41:20.916Z,24.91
2022-08-17T12:44:02.419Z,24.24
2022-08-17T12:46:47.740Z,23.79
2022-08-17T12:49:24.058Z,22.63
2022-08-17T12:52:12.163Z,22.26
2022-08-17T12:54:47.924Z,23.48
2022-08-17T12:57:20.031Z,21.66
2022-08-17T12:59:53.227Z,21.06
2022-08-17T13:02:30.014Z,20.61
2022-08-17T13:05:01.837Z,21.45
2022-08-17T13:07:36.464Z,20.78
2022-08-17T13:10:06.009Z,23.69
2022-08-17T13:12:37.005Z,22.35
2022-08-17T13:15:07.793Z,24.25
2022-08-17T13:17:37.627Z,25.48
2022-08-17T13:20:16.225Z,25.27
2022-08-17T13:22:54.465Z,25.78
2022-08-17T13:25:23.482Z,26.06
2022-08-17T13:27:54.827Z,25.93
2022-08-17T13:30:28.209Z,25.98
2022-08-17T13:32:58.671Z,28.10
2022-08-17T13:35:44.250Z,27.83
2022-08-17T13:41:34.707Z,25.25
2022-08-17T13:44:04.666Z,24.23
2022-08-17T13:46:35.326Z,24.04
2022-08-17T13:49:07.046Z,22.38
2022-08-17T13:51:42.980Z,20.70
2022-08-17T13:54:27.143Z,22.10
2022-08-17T13:57:01.501Z,22.41
2022-08-17T13:59:52.633Z,21.64
2022-08-17T14:02:28.254Z,21.07
2022-08-17T14:05:00.556Z,23.76
2022-08-17T14:07:33.935Z,22.69
2022-08-17T14:10:09.072Z,22.64
2022-08-17T14:12:40.270Z,21.46
2022-08-17T14:15:10.876Z,22.96
2022-08-17T14:17:39.799Z,24.01
2022-08-17T14:20:12.233Z,24.82
2022-08-17T14:22:44.914Z,25.02
2022-08-17T14:25:16.576Z,24.79
2022-08-17T14:27:53.663Z,24.87
2022-08-17T14:30:25.674Z,24.38
2022-08-17T14:32:58.200Z,25.27
2022-08-17T14:35:29.442Z,25.78
2022-08-17T14:37:58.901Z,25.67
2022-08-17T14:40:28.137Z,24.62
2022-08-17T14:42:58.896Z,24.46
2022-08-17T14:45:32.634Z,23.48
2022-08-17T14:48:07.726Z,23.82
2022-08-17T14:50:40.651Z,23.63
2022-08-17T14:53:12.731Z,22.20
2022-08-17T14:55:41.730Z,21.82
2022-08-17T14:58:12.028Z,22.73
2022-08-17T15:00:43.643Z,22.40
2022-08-17T15:03:12.648Z,21.35
2022-08-17T15:05:41.703Z,22.63
2022-08-17T15:08:11.001Z,22.08
2022-08-17T15:10:40.212Z,22.49
2022-08-17T15:13:18.411Z,22.44
2022-08-17T15:15:52.645Z,22.49
2022-08-17T15:18:22.767Z,22.22
2022-08-17T15:20:52.778Z,22.02
2022-08-17T15:23:23.610Z,21.75
2022-08-17T15:25:54.585Z,22.50
2022-08-17T15:28:25.134Z,23.07
2022-08-17T15:30:55.002Z,24.24
2022-08-17T15:33:29.492Z,25.70
2022-08-17T15:36:01.491Z,25.15
2022-08-17T15:38:39.216Z,25.61
2022-08-17T15:41:09.583Z,25.14
2022-08-17T15:43:40.196Z,25.31
2022-08-17T15:46:12.469Z,25.99
2022-08-17T15:48:43.688Z,25.91
2022-08-17T15:51:15.149Z,25.42
2022-08-17T15:53:46.477Z,24.84
2022-08-17T15:56:16.439Z,25.12
2022-08-17T15:58:47.826Z,24.16
2022-08-17T16:02:20.001Z,23.85
2022-08-17T16:04:29.792Z,25.01
2022-08-17T16:06:59.119Z,24.46
2022-08-17T16:09:28.385Z,25.02
2022-08-17T16:11:57.527Z,23.96
2022-08-17T16:14:33.558Z,23.85
2022-08-17T16:17:04.653Z,23.87
2022-08-17T16:19:34.402Z,24.05
2022-08-17T16:22:03.903Z,23.92
2022-08-17T16:24:33.273Z,24.35
2022-08-17T16:27:02.261Z,23.78
2022-08-17T16:29:32.591Z,23.21
2022-08-17T16:32:10.006Z,23.63
2022-08-17T16:34:39.073Z,23.61
2022-08-17T16:37:08.471Z,23.75
2022-08-17T16:39:38.581Z,24.23
2022-08-17T16:42:23.304Z,24.58
2022-08-17T16:44:54.961Z,24.32
2022-08-17T16:47:23.907Z,24.67
2022-08-17T16:49:53.396Z,25.12
2022-08-17T16:52:32.552Z,25.23
2022-08-17T16:55:02.998Z,25.83
2022-08-17T16:57:32.195Z,26.67
2022-08-17T17:00:02.715Z,26.55
2022-08-17T17:02:36.680Z,28.46
2022-08-17T17:05:10.391Z,27.32
2022-08-17T17:07:48.676Z,27.64
2022-08-17T17:10:22.071Z,28.50
2022-08-17T17:13:02.715Z,28.38
2022-08-17T17:15:54.407Z,28.61
2022-08-17T17:18:33.199Z,29.11
2022-08-17T17:21:02.512Z,30.19
2022-08-17T17:23:51.140Z,29.55
2022-08-17T17:26:30.660Z,29.23
2022-08-17T17:29:13.138Z,28.90
2022-08-17T17:31:56.076Z,30.14
2022-08-17T17:34:27.628Z,30.40
2022-08-17T17:36:59.962Z,30.95
2022-08-17T17:39:42.856Z,31.24
2022-08-17T17:42:20.304Z,31.62
2022-08-17T17:45:00.659Z,30.98
2022-08-17T17:47:32.398Z,30.20
2022-08-17T17:50:03.687Z,30.62
2022-08-17T17:52:41.078Z,34.83
2022-08-17T17:55:25.584Z,34.45
2022-08-17T17:58:04.614Z,34.88
2022-08-17T18:00:45.888Z,35.53
2022-08-17T18:03:28.906Z,35.77
2022-08-17T18:06:15.033Z,35.65
2022-08-17T18:08:54.870Z,35.89
2022-08-17T18:11:42.398Z,35.92
2022-08-17T18:14:38.725Z,36.26
2022-08-17T18:17:07.948Z,36.42
2022-08-17T18:19:41.483Z,36.79
2022-08-17T18:22:14.242Z,37.64
2022-08-17T18:24:45.469Z,38.27
2022-08-17T18:27:23.320Z,37.91
2022-08-17T18:29:54.037Z,37.96
2022-08-17T18:32:36.087Z,37.87
2022-08-17T18:35:32.696Z,38.35
2022-08-17T18:38:20.951Z,38.67
2022-08-17T18:41:01.366Z,39.70
2022-08-17T18:43:44.104Z,39.70
2022-08-17T18:46:29.686Z,40.00
2022-08-17T18:49:02.218Z,40.97
2022-08-17T18:51:40.557Z,40.06
2022-08-17T18:54:18.835Z,40.86
2022-08-17T18:56:54.205Z,42.04
2022-08-17T18:59:28.837Z,42.01
2022-08-17T19:02:27.344Z,42.69
2022-08-17T19:05:08.996Z,43.57
2022-08-17T19:07:41.869Z,43.60
2022-08-17T19:10:20.555Z,43.91
2022-08-17T19:12:55.529Z,43.77
2022-08-17T19:15:35.829Z,44.12
2022-08-17T19:18:15.122Z,44.04
2022-08-17T19:20:52.194Z,44.77
2022-08-17T19:23:28.892Z,45.37
2022-08-17T19:26:01.889Z,46.11
2022-08-17T19:28:37.917Z,47.00
2022-08-17T19:31:11.199Z,46.52
2022-08-17T19:33:40.048Z,47.23
2022-08-17T19:36:16.371Z,46.89
2022-08-17T19:38:59.815Z,47.18
2022-08-17T19:41:35.323Z,46.79
2022-08-17T19:44:31.319Z,48.27
2022-08-17T19:47:10.499Z,48.33
2022-08-17T19:49:53.468Z,47.18
2022-08-17T19:52:41.787Z,49.46
2022-08-17T19:55:20.954Z,47.83
2022-08-17T19:58:00.796Z,47.90
2022-08-17T20:00:31.626Z,48.21
2022-08-17T20:03:06.511Z,48.70
2022-08-17T20:06:08.689Z,48.70
2022-08-17T20:08:31.728Z,49.92
2022-08-17T20:11:08.816Z,48.93
2022-08-17T20:13:41.772Z,49.60
2022-08-17T20:16:12.139Z,50.64
2022-08-17T20:18:59.357Z,51.59
2022-08-17T20:21:35.711Z,52.82
2022-08-17T20:24:14.311Z,54.17
2022-08-17T20:26:57.884Z,54.82
2022-08-17T20:29:39.880Z,54.03
2022-08-17T20:32:19.365Z,53.42
2022-08-17T20:34:49.156Z,56.30
2022-08-17T20:37:31.283Z,52.47
2022-08-17T20:40:20.727Z,54.63
2022-08-17T20:42:51.275Z,55.55
2022-08-17T20:46:10.667Z,55.79
2022-08-17T20:48:43.914Z,56.51
2022-08-17T20:51:19.320Z,56.74
2022-08-17T20:53:59.410Z,56.63
2022-08-17T20:56:52.053Z,54.41
2022-08-17T20:59:56.414Z,56.04
2022-08-17T21:02:28.473Z,57.44
2022-08-17T21:05:35.462Z,58.43
2022-08-17T21:08:16.654Z,59.03
2022-08-17T21:10:48.163Z,58.23
2022-08-17T21:13:44.654Z,59.98
2022-08-17T21:16:41.380Z,58.91
2022-08-17T21:19:30.924Z,59.51
2022-08-17T21:22:13.784Z,59.92
2022-08-17T21:24:51.968Z,60.68
2022-08-17T21:27:31.063Z,60.17
2022-08-17T21:30:32.615Z,60.69
2022-08-17T21:33:29.588Z,61.32
2022-08-17T21:36:27.212Z,59.08
2022-08-17T21:39:06.435Z,61.20
2022-08-17T21:41:46.449Z,61.59
2022-08-17T21:44:30.495Z,61.79
2022-08-17T21:47:16.649Z,63.29
2022-08-17T21:49:47.019Z,63.80
2022-08-17T21:52:17.806Z,62.07
2022-08-17T21:54:52.308Z,61.90
2022-08-17T21:57:24.537Z,61.88
2022-08-17T21:59:56.636Z,62.46
2022-08-17T22:02:28.425Z,62.81
2022-08-17T22:05:01.869Z,63.31
2022-08-17T22:07:40.285Z,63.20
2022-08-17T22:10:27.188Z,65.39
2022-08-17T22:13:16.810Z,65.07
2022-08-17T22:15:48.564Z,65.62
2022-08-17T22:18:22.817Z,68.27
2022-08-17T22:20:56.341Z,67.62
2022-08-17T22:23:46.962Z,67.79
2022-08-17T22:26:18.573Z,67.08
2022-08-17T22:28:52.866Z,75.84
2022-08-17T22:31:25.042Z,74.05
2022-08-17T22:34:11.462Z,71.54
2022-08-17T22:36:43.238Z,72.93
2022-08-17T22:39:42.482Z,74.20
2022-08-17T22:42:15.740Z,73.20
2022-08-17T22:44:50.363Z,73.62
2022-08-17T22:47:31.824Z,71.17
2022-08-17T22:50:03.867Z,72.43
2022-08-17T22:52:56.814Z,72.14
2022-08-17T22:55:44.078Z,70.88
2022-08-17T22:58:32.242Z,70.25
2022-08-17T23:01:24.197Z,71.44
2022-08-17T23:03:55.569Z,71.34
2022-08-17T23:06:25.349Z,71.57
2022-08-17T23:08:57.762Z,69.89
2022-08-17T23:11:42.921Z,73.39
2022-08-17T23:14:20.695Z,73.76
2022-08-17T23:16:51.016Z,73.62
2022-08-17T23:19:22.305Z,76.65
2022-08-17T23:21:55.465Z,75.51
2022-08-17T23:24:27.685Z,76.74
2022-08-17T23:26:58.212Z,74.97
2022-08-17T23:29:29.442Z,78.34
2022-08-17T23:32:01.401Z,79.05
2022-08-17T23:34:30.352Z,77.57
2022-08-17T23:37:02.370Z,77.15
2022-08-17T23:39:32.862Z,77.83
2022-08-17T23:42:05.413Z,78.51
2022-08-17T23:44:34.507Z,77.47
2022-08-17T23:47:05.070Z,77.51
2022-08-17T23:49:33.960Z,79.37
2022-08-17T23:52:04.440Z,78.68
2022-08-17T23:54:43.838Z,78.05
2022-08-17T23:57:14.454Z,78.10
2022-08-17T23:59:44.511Z,80.46
